createdAt,value
2019-05-17T00:02:17.586Z,12.87
2019-05-17T00:04:47.648Z,12.82
2019-05-17T00:07:17.225Z,13.00
2019-05-17T00:09:47.846Z,13.20
2019-05-17T00:12:18.635Z,13.10
2019-05-17T00:14:48.206Z,13.25
2019-05-17T00:17:17.797Z,13.40
2019-05-17T00:19:47.505Z,12.37
2019-05-17T00:22:17.177Z,13.50
2019-05-17T00:24:47.688Z,13.27
2019-05-17T00:27:17.545Z,13.40
2019-05-17T00:29:47.169Z,13.83
2019-05-17T00:32:17.244Z,13.23
2019-05-17T00:34:47.199Z,13.30
2019-05-17T00:37:17.352Z,13.80
2019-05-17T00:39:47.386Z,12.97
2019-05-17T00:42:17.246Z,12.33
2019-05-17T00:44:47.520Z,13.33
2019-05-17T00:47:17.958Z,13.60
2019-05-17T00:49:47.675Z,13.57
2019-05-17T00:52:17.334Z,13.30
2019-05-17T00:54:47.065Z,13.93
2019-05-17T00:57:16.758Z,13.87
2019-05-17T00:59:47.531Z,13.37
2019-05-17T01:02:17.265Z,14.23
2019-05-17T01:04:47.603Z,12.47
2019-05-17T01:07:18.125Z,12.70
2019-05-17T01:09:47.673Z,13.80
2019-05-17T01:12:17.317Z,13.57
2019-05-17T01:14:46.988Z,13.97
2019-05-17T01:17:16.703Z,13.87
2019-05-17T01:19:47.204Z,12.27
2019-05-17T01:22:17.124Z,13.10
2019-05-17T01:24:46.640Z,13.33
2019-05-17T01:27:17.210Z,13.03
2019-05-17T01:29:47.013Z,12.80
2019-05-17T01:32:17.290Z,12.93
2019-05-17T01:34:47.132Z,13.70
2019-05-17T01:37:17.170Z,14.27
2019-05-17T01:39:47.388Z,12.90
2019-05-17T01:42:17.305Z,13.43
2019-05-17T01:44:47.381Z,13.70
2019-05-17T01:47:17.009Z,13.70
2019-05-17T01:49:47.060Z,13.13
2019-05-17T01:52:17.058Z,13.13
2019-05-17T01:54:47.050Z,14.17
2019-05-17T01:57:17.395Z,13.78
2019-05-17T01:59:46.969Z,13.93
2019-05-17T02:02:18.199Z,14.60
2019-05-17T02:04:49.405Z,14.37
2019-05-17T02:07:19.045Z,14.30
2019-05-17T02:09:48.650Z,14.00
2019-05-17T02:12:18.318Z,14.57
2019-05-17T02:14:48.304Z,14.80
2019-05-17T02:17:17.902Z,14.10
2019-05-17T02:19:47.559Z,14.80
2019-05-17T02:22:17.194Z,14.60
2019-05-17T02:24:46.896Z,14.70
2019-05-17T02:27:16.788Z,14.80
2019-05-17T02:29:46.347Z,15.43
2019-05-17T02:32:16.997Z,15.93
2019-05-17T02:34:46.692Z,15.90
2019-05-17T02:37:16.252Z,15.43
2019-05-17T02:40:01.030Z,14.60
2019-05-17T02:42:17.503Z,14.13
2019-05-17T02:44:47.196Z,14.50
2019-05-17T02:47:16.745Z,13.88
2019-05-17T02:49:46.874Z,14.73
2019-05-17T02:52:16.424Z,14.77
2019-05-17T02:54:46.227Z,13.87
2019-05-17T02:57:15.786Z,14.47
2019-05-17T02:59:45.331Z,14.53
2019-05-17T03:02:15.562Z,15.23
2019-05-17T03:04:45.196Z,15.17
2019-05-17T03:07:14.832Z,14.27
2019-05-17T03:09:44.529Z,15.80
2019-05-17T03:12:14.079Z,15.23
2019-05-17T03:14:43.892Z,15.17
2019-05-17T03:17:14.216Z,14.20
2019-05-17T03:19:44.037Z,14.53
2019-05-17T03:22:13.711Z,14.57
2019-05-17T03:24:43.861Z,14.60
2019-05-17T03:27:13.900Z,14.37
2019-05-17T03:29:44.188Z,13.40
2019-05-17T03:32:16.939Z,14.13
2019-05-17T03:34:55.267Z,14.00
2019-05-17T03:37:25.880Z,13.63
2019-05-17T03:39:53.596Z,12.47
2019-05-17T03:42:23.750Z,13.37
2019-05-17T03:44:53.382Z,13.97
2019-05-17T03:47:23.298Z,13.55
2019-05-17T03:49:53.517Z,13.77
2019-05-17T03:52:23.227Z,13.33
2019-05-17T03:54:53.403Z,14.60
2019-05-17T03:57:23.870Z,14.43
2019-05-17T03:59:53.818Z,14.23
2019-05-17T04:02:23.455Z,13.80
2019-05-17T04:04:53.577Z,14.27
2019-05-17T04:07:23.758Z,14.67
2019-05-17T04:09:53.619Z,15.33
2019-05-17T04:12:23.475Z,14.50
2019-05-17T04:14:53.587Z,14.67
2019-05-17T04:17:23.160Z,14.77
2019-05-17T04:19:53.626Z,14.93
2019-05-17T04:22:23.898Z,14.80
2019-05-17T04:24:54.560Z,13.90
2019-05-17T04:27:24.228Z,13.97
2019-05-17T04:29:53.766Z,14.87
2019-05-17T04:32:23.643Z,15.07
2019-05-17T04:34:53.307Z,15.07
2019-05-17T04:37:23.218Z,15.70
2019-05-17T04:39:53.225Z,15.00
2019-05-17T04:42:22.992Z,15.20
2019-05-17T04:44:53.033Z,15.00
2019-05-17T04:47:23.149Z,14.77
2019-05-17T04:49:53.877Z,14.10
2019-05-17T04:52:23.469Z,15.77
2019-05-17T04:54:53.920Z,14.80
2019-05-17T04:57:24.051Z,14.57
2019-05-17T04:59:53.778Z,14.47
2019-05-17T05:02:23.749Z,14.43
2019-05-17T05:04:53.582Z,15.70
2019-05-17T05:07:23.909Z,14.87
2019-05-17T05:09:53.464Z,14.10
2019-05-17T05:12:23.096Z,15.10
2019-05-17T05:14:52.738Z,15.13
2019-05-17T05:17:22.327Z,14.83
2019-05-17T05:19:53.066Z,15.03
2019-05-17T05:22:22.805Z,15.30
2019-05-17T05:24:52.883Z,14.83
2019-05-17T05:27:22.438Z,14.63
2019-05-17T05:29:52.637Z,14.53
2019-05-17T05:32:22.186Z,16.80
2019-05-17T05:34:52.014Z,20.17
2019-05-17T05:37:23.310Z,14.47
2019-05-17T05:39:54.689Z,14.23
2019-05-17T05:42:24.400Z,13.87
2019-05-17T05:44:55.574Z,13.40
2019-05-17T05:47:25.273Z,13.80
2019-05-17T05:49:54.955Z,12.90
2019-05-17T05:52:24.594Z,18.17
2019-05-17T05:54:54.155Z,15.87
2019-05-17T05:57:24.419Z,13.63
2019-05-17T05:59:53.982Z,12.00
2019-05-17T06:02:23.653Z,12.67
2019-05-17T06:04:53.760Z,12.20
2019-05-17T06:07:23.316Z,12.67
2019-05-17T06:09:52.927Z,11.27
2019-05-17T06:12:27.182Z,11.43
2019-05-17T06:14:53.870Z,10.67
2019-05-17T06:17:23.624Z,11.43
2019-05-17T06:19:53.239Z,11.40
2019-05-17T06:22:22.830Z,9.83
2019-05-17T06:24:52.472Z,10.27
2019-05-17T06:27:22.034Z,10.40
2019-05-17T06:29:51.766Z,11.30
2019-05-17T06:32:22.789Z,10.63
2019-05-17T06:34:52.597Z,9.77
2019-05-17T06:37:22.521Z,10.23
2019-05-17T06:39:52.749Z,10.33
2019-05-17T06:42:37.000Z,13.37
2019-05-17T06:44:53.986Z,10.77
2019-05-17T06:47:24.106Z,9.75
2019-05-17T06:49:53.695Z,10.47
2019-05-17T06:52:23.202Z,9.27
2019-05-17T06:54:52.817Z,9.70
2019-05-17T06:57:23.414Z,9.17
2019-05-17T06:59:53.075Z,9.37
2019-05-17T07:02:22.771Z,8.90
2019-05-17T07:04:54.123Z,10.00
2019-05-17T07:07:26.590Z,8.80
2019-05-17T07:10:00.490Z,8.70
2019-05-17T07:12:30.819Z,9.57
2019-05-17T07:15:01.886Z,8.80
2019-05-17T07:17:31.694Z,8.40
2019-05-17T07:20:01.306Z,8.87
2019-05-17T07:22:31.700Z,9.00
2019-05-17T07:25:01.264Z,9.20
2019-05-17T07:27:41.002Z,8.63
2019-05-17T07:30:02.410Z,8.17
2019-05-17T07:32:31.938Z,7.70
2019-05-17T07:35:01.617Z,7.70
2019-05-17T07:37:31.295Z,7.50
2019-05-17T07:40:04.892Z,7.33
2019-05-17T07:42:32.134Z,6.67
2019-05-17T07:45:02.224Z,7.57
2019-05-17T07:47:31.772Z,7.50
2019-05-17T07:50:01.410Z,7.70
2019-05-17T07:52:31.274Z,7.43
2019-05-17T07:55:02.313Z,7.07
2019-05-17T07:57:32.246Z,7.07
2019-05-17T08:00:02.586Z,7.90
2019-05-17T08:02:32.249Z,11.13
2019-05-17T08:05:01.862Z,7.10
2019-05-17T08:07:31.515Z,6.07
2019-05-17T08:10:01.065Z,6.10
2019-05-17T08:12:31.021Z,6.00
2019-05-17T08:15:00.834Z,5.47
2019-05-17T08:17:30.642Z,5.87
2019-05-17T08:20:00.800Z,5.80
2019-05-17T08:22:30.840Z,5.73
2019-05-17T08:25:00.398Z,5.93
2019-05-17T08:27:30.262Z,6.25
2019-05-17T08:30:00.125Z,6.20
2019-05-17T08:32:31.571Z,5.77
2019-05-17T08:35:01.321Z,5.23
2019-05-17T08:37:31.345Z,5.17
2019-05-17T08:40:01.024Z,5.87
2019-05-17T08:42:30.641Z,5.47
2019-05-17T08:45:00.539Z,6.13
2019-05-17T08:47:30.298Z,9.90
2019-05-17T08:50:00.459Z,8.73
2019-05-17T08:52:30.829Z,6.90
2019-05-17T08:55:00.590Z,6.97
2019-05-17T08:57:30.523Z,6.00
2019-05-17T09:00:01.056Z,6.37
2019-05-17T09:02:30.731Z,5.77
2019-05-17T09:05:00.671Z,5.50
2019-05-17T09:07:30.339Z,5.60
2019-05-17T09:10:01.757Z,5.53
2019-05-17T09:12:31.375Z,5.73
2019-05-17T09:15:00.921Z,5.87
2019-05-17T09:17:30.493Z,4.97
2019-05-17T09:20:00.965Z,4.70
2019-05-17T09:22:30.721Z,4.57
2019-05-17T09:25:00.226Z,4.10
2019-05-17T09:27:30.170Z,4.50
2019-05-17T09:30:00.180Z,4.30
2019-05-17T09:32:30.282Z,4.63
2019-05-17T09:35:00.348Z,4.10
2019-05-17T09:37:30.484Z,4.08
2019-05-17T09:40:00.324Z,4.07
2019-05-17T09:42:30.118Z,4.17
2019-05-17T09:45:00.478Z,3.57
2019-05-17T09:47:30.294Z,3.77
2019-05-17T09:50:00.518Z,4.13
2019-05-17T09:52:30.607Z,3.60
2019-05-17T09:55:00.642Z,4.20
2019-05-17T09:57:30.561Z,4.70
2019-05-17T10:00:00.432Z,3.83
2019-05-17T10:02:30.104Z,4.33
2019-05-17T10:05:00.016Z,3.90
2019-05-17T10:07:29.936Z,3.90
2019-05-17T10:09:59.891Z,3.70
2019-05-17T10:12:29.549Z,3.77
2019-05-17T10:15:00.512Z,3.70
2019-05-17T10:17:30.196Z,3.50
2019-05-17T10:20:00.256Z,6.67
2019-05-17T10:22:30.394Z,4.50
2019-05-17T10:25:00.538Z,2.77
2019-05-17T10:27:30.332Z,3.23
2019-05-17T10:29:59.896Z,2.60
2019-05-17T10:32:30.977Z,3.30
2019-05-17T10:35:00.844Z,4.03
2019-05-17T10:37:30.473Z,3.50
2019-05-17T10:40:00.150Z,3.63
2019-05-17T10:42:30.551Z,3.00
2019-05-17T10:45:00.368Z,3.10
2019-05-17T10:47:30.360Z,2.60
2019-05-17T10:50:00.756Z,2.10
2019-05-17T10:52:30.518Z,2.30
2019-05-17T10:55:00.095Z,2.30
2019-05-17T10:57:30.579Z,2.37
2019-05-17T11:00:00.275Z,2.07
2019-05-17T11:02:30.391Z,2.27
2019-05-17T11:05:00.887Z,2.33
2019-05-17T11:07:30.608Z,2.37
2019-05-17T11:10:00.709Z,1.80
2019-05-17T11:12:30.651Z,1.90
2019-05-17T11:15:10.533Z,1.97
2019-05-17T11:17:31.481Z,2.27
2019-05-17T11:20:01.126Z,1.90
2019-05-17T11:22:30.657Z,2.20
2019-05-17T11:25:00.206Z,2.20
2019-05-17T11:27:30.143Z,2.20
2019-05-17T11:29:59.704Z,2.50
2019-05-17T11:32:29.287Z,2.17
2019-05-17T11:34:58.942Z,2.20
2019-05-17T11:37:28.643Z,2.80
2019-05-17T11:39:58.177Z,2.23
2019-05-17T11:42:27.829Z,2.10
2019-05-17T11:44:57.407Z,2.27
2019-05-17T11:47:27.756Z,3.00
2019-05-17T11:49:57.543Z,3.33
2019-05-17T11:52:27.106Z,2.60
2019-05-17T11:54:56.654Z,3.03
2019-05-17T11:57:26.378Z,3.20
2019-05-17T11:59:56.353Z,3.97
2019-05-17T12:02:25.906Z,3.70
2019-05-17T12:04:55.456Z,3.17
2019-05-17T12:07:25.115Z,3.07
2019-05-17T12:09:54.778Z,2.63
2019-05-17T12:12:24.336Z,3.10
2019-05-17T12:14:53.889Z,2.20
2019-05-17T12:17:24.332Z,2.43
2019-05-17T12:19:53.891Z,2.53
2019-05-17T12:22:23.472Z,6.90
2019-05-17T12:24:53.036Z,6.60
2019-05-17T12:27:22.780Z,3.00
2019-05-17T12:29:52.333Z,3.70
2019-05-17T12:32:21.925Z,2.83
2019-05-17T12:34:51.855Z,2.70
2019-05-17T12:37:21.405Z,2.30
2019-05-17T12:39:51.128Z,1.83
2019-05-17T12:42:22.015Z,2.13
2019-05-17T12:44:51.653Z,1.90
2019-05-17T12:47:21.326Z,2.07
2019-05-17T12:49:51.022Z,1.83
2019-05-17T12:52:20.585Z,1.27
2019-05-17T12:54:50.198Z,1.10
2019-05-17T12:57:19.763Z,1.10
2019-05-17T12:59:49.465Z,1.27
2019-05-17T13:02:19.090Z,1.27
2019-05-17T13:04:48.639Z,1.00
2019-05-17T13:07:18.477Z,0.83
2019-05-17T13:09:48.021Z,0.87
2019-05-17T13:12:17.716Z,0.90
2019-05-17T13:14:47.594Z,0.83
2019-05-17T13:17:17.239Z,0.90
2019-05-17T13:19:46.788Z,0.90
2019-05-17T13:22:16.475Z,0.80
2019-05-17T13:24:46.011Z,0.70
2019-05-17T13:27:15.672Z,0.80
2019-05-17T13:29:45.225Z,5.23
2019-05-17T13:32:14.791Z,2.50
2019-05-17T13:34:44.429Z,0.80
2019-05-17T13:37:13.985Z,0.93
2019-05-17T13:39:44.264Z,1.00
2019-05-17T13:42:14.195Z,0.97
2019-05-17T13:44:44.022Z,0.73
2019-05-17T13:47:13.583Z,1.13
2019-05-17T13:49:43.236Z,1.37
2019-05-17T13:52:12.893Z,1.20
2019-05-17T13:54:43.131Z,1.10
2019-05-17T13:57:12.766Z,2.17
2019-05-17T13:59:43.160Z,4.63
2019-05-17T14:02:13.759Z,3.43
2019-05-17T14:04:43.478Z,1.13
2019-05-17T14:07:13.035Z,1.20
2019-05-17T14:09:42.601Z,1.53
2019-05-17T14:12:13.445Z,1.53
2019-05-17T14:14:42.989Z,1.20
2019-05-17T14:17:12.546Z,1.30
2019-05-17T14:19:42.207Z,1.70
2019-05-17T14:22:12.183Z,1.50
2019-05-17T14:24:41.817Z,1.80
2019-05-17T14:27:11.811Z,1.70
2019-05-17T14:29:41.395Z,2.20
2019-05-17T14:32:11.261Z,4.20
2019-05-17T14:34:41.052Z,2.07
2019-05-17T14:37:11.198Z,1.80
2019-05-17T14:39:40.966Z,1.93
2019-05-17T14:42:10.513Z,2.20
2019-05-17T14:44:40.899Z,2.50
2019-05-17T14:47:10.692Z,2.27
2019-05-17T14:49:40.264Z,2.43
2019-05-17T14:52:09.822Z,2.50
2019-05-17T14:54:39.450Z,2.60
2019-05-17T14:57:09.098Z,2.20
2019-05-17T14:59:38.662Z,12.97
2019-05-17T15:02:08.230Z,4.63
2019-05-17T15:04:37.923Z,3.83
2019-05-17T15:07:11.032Z,2.60
2019-05-17T15:09:38.785Z,2.23
2019-05-17T15:12:08.592Z,2.47
2019-05-17T15:14:38.136Z,2.50
2019-05-17T15:17:07.753Z,3.20
2019-05-17T15:19:37.879Z,3.03
2019-05-17T15:22:07.435Z,3.07
2019-05-17T15:24:36.978Z,2.77
2019-05-17T15:27:06.660Z,5.37
2019-05-17T15:29:36.211Z,12.97
2019-05-17T15:32:05.771Z,5.53
2019-05-17T15:34:35.393Z,4.60
2019-05-17T15:37:06.253Z,4.53
2019-05-17T15:39:35.818Z,4.10
2019-05-17T15:42:05.741Z,4.20
2019-05-17T15:44:35.258Z,4.10
2019-05-17T15:47:04.823Z,4.40
2019-05-17T15:49:34.504Z,3.93
2019-05-17T15:52:04.184Z,3.90
2019-05-17T15:54:33.742Z,5.17
2019-05-17T15:57:03.363Z,3.77
2019-05-17T15:59:32.918Z,3.50
2019-05-17T16:02:02.671Z,3.37
2019-05-17T16:04:32.239Z,4.20
2019-05-17T16:07:02.220Z,3.57
2019-05-17T16:09:31.772Z,4.30
2019-05-17T16:12:01.556Z,3.80
2019-05-17T16:14:31.096Z,4.20
2019-05-17T16:17:00.683Z,4.20
2019-05-17T16:19:30.340Z,3.90
2019-05-17T16:21:59.972Z,4.20
2019-05-17T16:24:29.546Z,4.13
2019-05-17T16:26:59.442Z,4.20
2019-05-17T16:29:29.034Z,4.80
2019-05-17T16:31:58.662Z,4.33
2019-05-17T16:34:28.216Z,4.00
2019-05-17T16:36:57.771Z,3.97
2019-05-17T16:39:27.439Z,5.40
2019-05-17T16:41:57.666Z,4.40
2019-05-17T16:44:27.223Z,4.30
2019-05-17T16:46:57.210Z,4.30
2019-05-17T16:49:28.588Z,4.13
2019-05-17T16:51:58.313Z,4.10
2019-05-17T16:54:27.940Z,3.97
2019-05-17T16:56:57.495Z,3.93
2019-05-17T16:59:27.317Z,3.97
2019-05-17T17:01:56.952Z,3.93
2019-05-17T17:04:26.500Z,4.23
2019-05-17T17:06:56.128Z,3.80
2019-05-17T17:09:26.339Z,3.40
2019-05-17T17:11:55.959Z,3.73
2019-05-17T17:14:25.518Z,4.00
2019-05-17T17:16:55.346Z,3.53
2019-05-17T17:19:25.018Z,3.93
2019-05-17T17:21:54.684Z,5.33
2019-05-17T17:24:24.327Z,4.10
2019-05-17T17:26:53.883Z,3.83
2019-05-17T17:29:23.510Z,4.27
2019-05-17T17:31:53.055Z,3.83
2019-05-17T17:34:22.603Z,4.73
2019-05-17T17:36:52.279Z,4.70
2019-05-17T17:39:21.834Z,6.10
2019-05-17T17:41:51.641Z,5.33
2019-05-17T17:44:21.187Z,5.07
2019-05-17T17:46:50.845Z,4.93
2019-05-17T17:49:20.462Z,5.83
2019-05-17T17:51:50.235Z,5.07
2019-05-17T17:54:19.783Z,4.40
2019-05-17T17:56:49.423Z,4.08
2019-05-17T17:59:18.977Z,4.70
2019-05-17T18:01:48.618Z,4.13
2019-05-17T18:04:18.177Z,4.53
2019-05-17T18:06:47.978Z,4.07
2019-05-17T18:09:17.520Z,4.30
2019-05-17T18:11:47.421Z,4.57
2019-05-17T18:14:17.041Z,4.63
2019-05-17T18:16:46.595Z,4.93
2019-05-17T18:19:16.240Z,3.93
2019-05-17T18:21:45.948Z,3.90
2019-05-17T18:24:15.487Z,4.30
2019-05-17T18:26:45.042Z,3.60
2019-05-17T18:29:14.790Z,3.80
2019-05-17T18:31:44.350Z,3.80
2019-05-17T18:34:13.891Z,3.80
2019-05-17T18:36:43.548Z,4.10
2019-05-17T18:39:13.342Z,3.93
2019-05-17T18:41:43.358Z,4.17
2019-05-17T18:44:26.896Z,4.00
2019-05-17T18:46:44.279Z,3.73
2019-05-17T18:49:13.839Z,3.90
2019-05-17T18:51:43.435Z,4.50
2019-05-17T18:54:15.929Z,4.53
2019-05-17T18:56:45.473Z,5.30
2019-05-17T18:59:15.200Z,6.47
2019-05-17T19:01:44.739Z,6.10
2019-05-17T19:04:14.290Z,5.00
2019-05-17T19:06:44.640Z,4.97
2019-05-17T19:09:14.194Z,4.40
2019-05-17T19:11:44.312Z,4.47
2019-05-17T19:14:13.852Z,4.40
2019-05-17T19:16:43.475Z,4.80
2019-05-17T19:19:13.134Z,4.80
2019-05-17T19:21:42.806Z,4.30
2019-05-17T19:24:12.360Z,4.03
2019-05-17T19:26:42.250Z,4.70
2019-05-17T19:29:11.804Z,5.43
2019-05-17T19:31:41.463Z,5.60
2019-05-17T19:34:11.090Z,5.60
2019-05-17T19:36:41.663Z,5.30
2019-05-17T19:39:11.690Z,5.33
2019-05-17T19:41:41.237Z,5.90
2019-05-17T19:44:10.779Z,6.00
2019-05-17T19:46:40.607Z,6.20
2019-05-17T19:49:10.282Z,6.17
2019-05-17T19:51:39.836Z,5.83
2019-05-17T19:54:09.692Z,5.73
2019-05-17T19:56:39.268Z,5.80
2019-05-17T19:59:09.378Z,6.00
2019-05-17T20:01:39.676Z,5.93
2019-05-17T20:04:09.228Z,6.50
2019-05-17T20:06:39.109Z,5.87
2019-05-17T20:09:09.123Z,6.03
2019-05-17T20:11:39.656Z,6.50
2019-05-17T20:14:09.213Z,5.90
2019-05-17T20:16:39.227Z,6.10
2019-05-17T20:19:08.821Z,6.80
2019-05-17T20:21:38.906Z,10.27
2019-05-17T20:24:08.893Z,9.37
2019-05-17T20:26:38.443Z,7.57
2019-05-17T20:29:10.753Z,7.67
2019-05-17T20:31:39.361Z,7.17
2019-05-17T20:34:08.930Z,6.90
2019-05-17T20:36:38.798Z,7.23
2019-05-17T20:39:09.576Z,6.70
2019-05-17T20:41:39.191Z,7.40
2019-05-17T20:44:08.944Z,7.90
2019-05-17T20:46:38.502Z,7.83
2019-05-17T20:49:08.197Z,7.30
2019-05-17T20:51:37.751Z,7.30
2019-05-17T20:54:07.442Z,7.03
2019-05-17T20:56:37.069Z,7.67
2019-05-17T20:59:06.610Z,7.17
2019-05-17T21:01:36.341Z,11.43
2019-05-17T21:04:05.971Z,8.00
2019-05-17T21:06:35.540Z,8.00
2019-05-17T21:09:06.856Z,8.07
2019-05-17T21:11:36.778Z,7.83
2019-05-17T21:14:06.454Z,7.77
2019-05-17T21:16:36.384Z,7.77
2019-05-17T21:19:06.202Z,7.70
2019-05-17T21:21:35.810Z,8.00
2019-05-17T21:24:05.425Z,7.80
2019-05-17T21:26:34.987Z,8.27
2019-05-17T21:29:04.712Z,7.70
2019-05-17T21:31:34.629Z,8.57
2019-05-17T21:34:04.808Z,9.20
2019-05-17T21:36:34.429Z,9.10
2019-05-17T21:39:05.591Z,8.57
2019-05-17T21:41:35.168Z,8.33
2019-05-17T21:44:05.019Z,9.43
2019-05-17T21:46:34.975Z,10.47
2019-05-17T21:49:04.597Z,9.63
2019-05-17T21:51:34.169Z,9.93
2019-05-17T21:54:05.085Z,10.27
2019-05-17T21:56:34.641Z,9.60
2019-05-17T21:59:04.196Z,9.87
2019-05-17T22:01:35.024Z,9.77
2019-05-17T22:04:05.146Z,9.20
2019-05-17T22:06:34.714Z,8.77
2019-05-17T22:09:05.564Z,9.50
2019-05-17T22:11:36.310Z,10.17
2019-05-17T22:14:05.857Z,9.70
2019-05-17T22:16:35.416Z,9.33
2019-05-17T22:19:05.853Z,9.60
2019-05-17T22:21:35.673Z,9.50
2019-05-17T22:24:05.370Z,9.20
2019-05-17T22:26:35.176Z,8.77
2019-05-17T22:29:04.732Z,9.87
2019-05-17T22:31:35.004Z,9.97
2019-05-17T22:34:04.558Z,9.53
2019-05-17T22:36:34.122Z,10.60
2019-05-17T22:39:04.937Z,10.30
2019-05-17T22:41:34.488Z,9.70
2019-05-17T22:44:04.377Z,10.87
2019-05-17T22:46:36.361Z,10.00
2019-05-17T22:49:05.334Z,9.40
2019-05-17T22:51:35.129Z,9.87
2019-05-17T22:54:05.217Z,9.83
2019-05-17T22:56:35.156Z,9.93
2019-05-17T22:59:04.712Z,10.17
2019-05-17T23:01:34.569Z,9.93
2019-05-17T23:04:04.487Z,9.57
2019-05-17T23:06:34.047Z,10.03
2019-05-17T23:09:04.048Z,9.53
2019-05-17T23:11:33.813Z,9.90
2019-05-17T23:14:03.481Z,9.77
2019-05-17T23:16:33.232Z,9.58
2019-05-17T23:19:09.498Z,9.83
2019-05-17T23:21:39.480Z,9.83
2019-05-17T23:24:09.036Z,11.33
2019-05-17T23:26:39.244Z,9.13
2019-05-17T23:29:09.854Z,9.07
2019-05-17T23:31:39.408Z,9.93
2019-05-17T23:34:08.961Z,9.90
2019-05-17T23:36:39.513Z,9.57
2019-05-17T23:39:10.222Z,10.07
2019-05-17T23:41:39.776Z,9.03
2019-05-17T23:44:09.329Z,8.67
2019-05-17T23:46:38.956Z,9.17
2019-05-17T23:49:08.830Z,9.43
2019-05-17T23:51:38.987Z,10.47
2019-05-17T23:54:08.901Z,9.20
2019-05-17T23:56:39.015Z,9.57
2019-05-17T23:59:08.581Z,9.20
